createdAt,value
2018-09-05T00:00:54.939Z,8.37
2018-09-05T00:03:23.887Z,8.27
2018-09-05T00:05:52.821Z,9.00
2018-09-05T00:08:21.842Z,8.03
2018-09-05T00:10:50.672Z,8.43
2018-09-05T00:13:20.079Z,8.77
2018-09-05T00:15:49.060Z,8.50
2018-09-05T00:18:18.026Z,8.13
2018-09-05T00:20:46.917Z,8.43
2018-09-05T00:23:15.747Z,7.77
2018-09-05T00:25:44.663Z,8.40
2018-09-05T00:28:13.979Z,9.50
2018-09-05T00:30:43.011Z,9.90
2018-09-05T00:33:11.914Z,10.13
2018-09-05T00:35:41.234Z,10.60
2018-09-05T00:38:10.220Z,11.27
2018-09-05T00:40:39.180Z,11.57
2018-09-05T00:43:10.660Z,10.10
2018-09-05T00:45:39.779Z,12.23
2018-09-05T00:48:08.736Z,11.60
2018-09-05T00:50:37.685Z,12.27
2018-09-05T00:53:06.729Z,12.17
2018-09-05T00:55:35.616Z,13.40
2018-09-05T00:58:04.701Z,15.93
2018-09-05T01:00:38.268Z,17.30
2018-09-05T01:03:09.538Z,19.20
2018-09-05T01:05:38.524Z,20.47
2018-09-05T01:08:07.641Z,22.10
2018-09-05T01:10:37.019Z,22.27
2018-09-05T01:13:06.120Z,20.23
2018-09-05T01:15:35.220Z,20.13
2018-09-05T01:18:04.840Z,20.30
2018-09-05T01:20:33.875Z,21.00
2018-09-05T01:23:02.894Z,22.10
2018-09-05T01:25:32.322Z,22.17
2018-09-05T01:28:01.139Z,21.93
2018-09-05T01:30:30.170Z,23.73
2018-09-05T01:33:00.064Z,22.00
2018-09-05T01:35:29.097Z,24.13
2018-09-05T01:37:58.043Z,23.53
2018-09-05T01:40:27.884Z,21.30
2018-09-05T01:42:56.777Z,21.93
2018-09-05T01:45:26.654Z,21.33
2018-09-05T01:47:55.901Z,22.30
2018-09-05T01:50:29.995Z,21.97
2018-09-05T01:52:58.850Z,23.03
2018-09-05T01:55:27.817Z,23.90
2018-09-05T01:57:56.591Z,24.20
2018-09-05T02:00:31.054Z,23.57
2018-09-05T02:02:59.975Z,23.47
2018-09-05T02:05:28.946Z,23.23
2018-09-05T02:07:58.763Z,21.27
2018-09-05T02:10:27.815Z,21.93
2018-09-05T02:12:56.849Z,24.03
2018-09-05T02:15:26.440Z,24.03
2018-09-05T02:17:55.445Z,24.70
2018-09-05T02:20:55.428Z,24.40
2018-09-05T02:23:25.639Z,23.70
2018-09-05T02:25:54.556Z,22.00
2018-09-05T02:28:23.556Z,24.60
2018-09-05T02:30:52.635Z,23.03
2018-09-05T02:33:21.673Z,22.17
2018-09-05T02:35:50.522Z,21.90
2018-09-05T02:38:19.347Z,21.10
2018-09-05T02:40:48.461Z,21.57
2018-09-05T02:43:22.481Z,20.40
2018-09-05T02:45:51.373Z,20.17
2018-09-05T02:48:20.391Z,20.40
2018-09-05T02:50:50.825Z,20.73
2018-09-05T02:53:21.014Z,22.53
2018-09-05T02:55:55.262Z,22.07
2018-09-05T02:58:24.311Z,21.60
2018-09-05T03:00:53.441Z,20.87
2018-09-05T03:03:22.841Z,23.80
2018-09-05T03:05:51.872Z,21.53
2018-09-05T03:08:20.759Z,23.00
2018-09-05T03:10:49.717Z,23.43
2018-09-05T03:13:18.652Z,23.60
2018-09-05T03:15:47.660Z,24.37
2018-09-05T03:18:17.198Z,25.10
2018-09-05T03:20:46.100Z,26.40
2018-09-05T03:23:14.977Z,25.23
2018-09-05T03:25:44.138Z,25.23
2018-09-05T03:28:13.203Z,25.50
2018-09-05T03:30:42.357Z,25.37
2018-09-05T03:33:11.499Z,26.30
2018-09-05T03:35:40.467Z,23.37
2018-09-05T03:38:09.385Z,23.47
2018-09-05T03:40:38.613Z,25.17
2018-09-05T03:43:07.556Z,24.03
2018-09-05T03:45:36.658Z,26.20
2018-09-05T03:48:05.859Z,24.60
2018-09-05T03:50:35.448Z,23.60
2018-09-05T03:53:04.533Z,24.17
2018-09-05T03:55:33.620Z,45.80
2018-09-05T03:58:03.695Z,33.23
2018-09-05T04:00:38.112Z,26.03
2018-09-05T04:03:07.068Z,28.47
2018-09-05T04:05:36.138Z,97.93
2018-09-05T04:08:05.412Z,38.93
2018-09-05T04:10:34.379Z,28.00
2018-09-05T04:13:03.423Z,27.30
2018-09-05T04:15:32.682Z,30.33
2018-09-05T04:18:01.669Z,25.47
2018-09-05T04:20:30.649Z,19.43
2018-09-05T04:22:59.646Z,19.00
2018-09-05T04:25:28.639Z,16.97
2018-09-05T04:27:57.570Z,14.90
2018-09-05T04:30:26.679Z,14.90
2018-09-05T04:32:55.721Z,15.17
2018-09-05T04:35:26.297Z,20.67
2018-09-05T04:37:56.589Z,17.77
2018-09-05T04:40:25.485Z,17.17
2018-09-05T04:42:54.516Z,14.73
2018-09-05T04:45:26.132Z,16.27
2018-09-05T04:47:55.457Z,16.40
2018-09-05T04:50:26.817Z,17.40
2018-09-05T04:56:26.226Z,16.00
2018-09-05T04:58:55.986Z,15.27
2018-09-05T05:01:27.414Z,16.70
2018-09-05T05:03:56.412Z,12.97
2018-09-05T05:06:25.459Z,13.50
2018-09-05T05:08:54.513Z,26.60
2018-09-05T05:11:23.374Z,11.47
2018-09-05T05:13:52.300Z,10.13
2018-09-05T05:16:21.544Z,10.77
2018-09-05T05:18:50.393Z,12.03
2018-09-05T05:21:19.418Z,9.93
2018-09-05T05:23:49.035Z,10.63
2018-09-05T05:26:18.102Z,11.67
2018-09-05T05:28:47.604Z,9.80
2018-09-05T05:31:16.557Z,11.30
2018-09-05T05:33:45.961Z,9.77
2018-09-05T05:36:16.346Z,8.83
2018-09-05T05:38:45.475Z,10.57
2018-09-05T05:41:14.540Z,9.63
2018-09-05T05:43:43.686Z,9.00
2018-09-05T05:46:22.767Z,9.13
2018-09-05T05:49:01.672Z,9.27
2018-09-05T05:51:30.813Z,9.30
2018-09-05T05:54:00.351Z,9.07
2018-09-05T05:56:29.950Z,9.33
2018-09-05T05:59:05.039Z,9.70
2018-09-05T06:01:39.628Z,10.10
2018-09-05T06:04:12.068Z,9.70
2018-09-05T06:06:47.313Z,8.53
2018-09-05T06:09:16.404Z,9.23
2018-09-05T06:11:51.264Z,9.87
2018-09-05T06:14:20.216Z,8.63
2018-09-05T06:16:50.161Z,8.37
2018-09-05T06:19:19.616Z,8.63
2018-09-05T06:21:54.050Z,9.53
2018-09-05T06:24:23.211Z,8.77
2018-09-05T06:26:53.142Z,8.57
2018-09-05T06:29:25.388Z,8.73
2018-09-05T06:31:54.539Z,9.57
2018-09-05T06:34:28.042Z,10.80
2018-09-05T06:36:59.622Z,10.87
2018-09-05T06:39:28.737Z,9.77
2018-09-05T06:41:57.719Z,10.17
2018-09-05T06:44:32.178Z,9.47
2018-09-05T06:47:04.707Z,9.65
2018-09-05T06:49:34.592Z,10.65
2018-09-05T06:52:04.025Z,8.35
2018-09-05T06:54:40.795Z,8.20
2018-09-05T06:57:16.402Z,8.00
2018-09-05T06:59:52.806Z,7.95
2018-09-05T07:02:23.815Z,8.80
2018-09-05T07:04:54.351Z,7.60
2018-09-05T07:07:30.012Z,7.95
2018-09-05T07:10:02.612Z,7.70
2018-09-05T07:12:34.969Z,7.87
2018-09-05T07:15:10.358Z,7.70
2018-09-05T07:17:41.544Z,8.68
2018-09-05T07:20:14.131Z,7.75
2018-09-05T07:22:43.534Z,8.30
2018-09-05T07:25:31.137Z,7.85
2018-09-05T07:28:05.916Z,7.17
2018-09-05T07:30:37.479Z,7.08
2018-09-05T07:38:33.337Z,5.85
2018-09-05T07:41:02.570Z,5.97
2018-09-05T07:43:35.355Z,5.70
2018-09-05T07:46:05.420Z,5.85
2018-09-05T07:48:39.427Z,5.08
2018-09-05T07:51:14.569Z,5.83
2018-09-05T07:53:43.661Z,5.42
2018-09-05T07:56:12.749Z,5.28
2018-09-05T07:58:49.840Z,5.72
2018-09-05T08:01:19.034Z,5.17
2018-09-05T08:03:50.257Z,5.50
2018-09-05T08:06:24.695Z,4.80
2018-09-05T08:08:54.288Z,5.17
2018-09-05T08:11:29.842Z,4.90
2018-09-05T08:13:59.638Z,4.40
2018-09-05T08:16:34.334Z,4.17
2018-09-05T08:19:03.843Z,3.83
2018-09-05T08:21:32.827Z,3.42
2018-09-05T08:24:02.954Z,3.60
2018-09-05T08:26:34.000Z,4.45
2018-09-05T08:29:03.197Z,3.98
2018-09-05T08:31:40.328Z,4.10
2018-09-05T08:37:07.202Z,3.90
2018-09-05T08:39:35.985Z,3.65
2018-09-05T08:42:05.083Z,3.65
2018-09-05T08:44:35.692Z,4.05
2018-09-05T08:47:08.593Z,4.08
2018-09-05T08:49:42.898Z,3.72
2018-09-05T08:52:12.137Z,3.98
2018-09-05T08:54:47.253Z,3.70
2018-09-05T08:57:17.228Z,3.55
2018-09-05T08:59:46.367Z,4.20
2018-09-05T09:02:19.174Z,4.40
2018-09-05T09:04:54.699Z,4.08
2018-09-05T09:07:24.905Z,3.87
2018-09-05T09:09:55.075Z,4.25
2018-09-05T09:12:24.378Z,3.95
2018-09-05T09:14:58.856Z,4.37
2018-09-05T09:17:27.950Z,4.00
2018-09-05T09:19:57.068Z,4.22
2018-09-05T09:22:26.440Z,3.87
2018-09-05T09:24:57.544Z,4.00
2018-09-05T09:27:26.900Z,3.92
2018-09-05T09:29:55.910Z,4.40
2018-09-05T09:32:25.000Z,4.12
2018-09-05T09:34:54.574Z,4.03
2018-09-05T09:37:24.545Z,4.53
2018-09-05T09:39:53.597Z,5.00
2018-09-05T09:42:26.530Z,4.42
2018-09-05T09:44:55.477Z,5.17
2018-09-05T09:47:28.670Z,4.97
2018-09-05T09:50:00.562Z,4.40
2018-09-05T09:52:37.684Z,4.67
2018-09-05T09:55:08.775Z,4.72
2018-09-05T09:57:38.929Z,4.92
2018-09-05T10:00:09.364Z,5.22
2018-09-05T10:02:43.502Z,4.80
2018-09-05T10:05:18.553Z,5.42
2018-09-05T10:07:52.475Z,4.87
2018-09-05T10:10:26.541Z,4.72
2018-09-05T10:13:00.675Z,4.53
2018-09-05T10:15:34.753Z,4.50
2018-09-05T10:18:09.141Z,4.00
2018-09-05T10:20:38.000Z,4.40
2018-09-05T10:23:06.866Z,4.03
2018-09-05T10:25:36.010Z,4.10
2018-09-05T10:28:05.016Z,4.42
2018-09-05T10:30:34.058Z,4.37
2018-09-05T10:33:03.151Z,4.22
2018-09-05T10:35:32.164Z,4.65
2018-09-05T10:38:00.983Z,4.20
2018-09-05T10:40:30.382Z,4.10
2018-09-05T10:42:59.255Z,3.50
2018-09-05T10:45:28.270Z,3.00
2018-09-05T10:47:57.319Z,3.15
2018-09-05T10:50:26.361Z,3.33
2018-09-05T10:52:55.309Z,3.05
2018-09-05T10:55:24.669Z,2.95
2018-09-05T10:57:53.803Z,2.80
2018-09-05T11:00:25.357Z,3.83
2018-09-05T11:02:54.418Z,3.37
2018-09-05T11:05:23.427Z,3.70
2018-09-05T11:07:52.589Z,5.10
2018-09-05T11:10:21.522Z,6.15
2018-09-05T11:12:50.356Z,6.12
2018-09-05T11:15:19.725Z,6.80
2018-09-05T11:17:48.572Z,5.60
2018-09-05T11:20:17.366Z,4.97
2018-09-05T11:22:46.328Z,3.25
2018-09-05T11:25:15.178Z,3.33
2018-09-05T11:27:44.190Z,2.70
2018-09-05T11:30:13.272Z,2.65
2018-09-05T11:32:42.069Z,2.40
2018-09-05T11:35:10.977Z,2.25
2018-09-05T11:37:39.781Z,2.15
2018-09-05T11:40:08.984Z,2.33
2018-09-05T11:42:37.718Z,2.12
2018-09-05T11:45:06.810Z,2.00
2018-09-05T11:47:35.644Z,2.40
2018-09-05T11:50:05.031Z,2.17
2018-09-05T11:52:34.272Z,2.30
2018-09-05T11:55:03.093Z,2.27
2018-09-05T11:57:32.002Z,2.50
2018-09-05T12:00:01.165Z,2.30
2018-09-05T12:02:29.976Z,2.47
2018-09-05T12:04:58.838Z,2.42
2018-09-05T12:07:27.721Z,2.15
2018-09-05T12:09:56.627Z,2.47
2018-09-05T12:12:25.631Z,2.60
2018-09-05T12:14:54.501Z,2.37
2018-09-05T12:17:23.424Z,2.83
2018-09-05T12:19:52.341Z,3.40
2018-09-05T12:22:21.522Z,3.17
2018-09-05T12:24:50.481Z,3.33
2018-09-05T12:27:19.369Z,3.55
2018-09-05T12:29:48.614Z,3.33
2018-09-05T12:32:17.366Z,3.27
2018-09-05T12:34:46.094Z,3.72
2018-09-05T12:37:14.917Z,3.92
2018-09-05T12:39:43.673Z,4.50
2018-09-05T12:42:12.489Z,6.72
2018-09-05T12:44:41.681Z,5.03
2018-09-05T12:47:10.442Z,4.40
2018-09-05T12:49:39.287Z,6.65
2018-09-05T12:52:08.170Z,10.30
2018-09-05T12:54:37.102Z,8.78
2018-09-05T12:57:06.046Z,6.00
2018-09-05T12:59:35.054Z,10.98
2018-09-05T13:02:03.861Z,6.12
2018-09-05T13:04:32.757Z,5.15
2018-09-05T13:07:01.788Z,4.55
2018-09-05T13:09:30.663Z,4.55
2018-09-05T13:11:59.512Z,4.97
2018-09-05T13:14:28.317Z,4.20
2018-09-05T13:16:57.210Z,4.25
2018-09-05T13:19:26.081Z,4.60
2018-09-05T13:21:54.932Z,3.90
2018-09-05T13:24:23.909Z,4.30
2018-09-05T13:26:52.787Z,3.47
2018-09-05T13:29:21.975Z,3.72
2018-09-05T13:31:51.222Z,3.15
2018-09-05T13:34:20.071Z,3.87
2018-09-05T13:36:49.015Z,8.75
2018-09-05T13:39:18.946Z,4.53
2018-09-05T13:41:47.777Z,4.00
2018-09-05T13:44:16.657Z,3.50
2018-09-05T13:46:46.069Z,3.30
2018-09-05T13:49:14.837Z,2.98
2018-09-05T13:51:48.831Z,3.30
2018-09-05T13:54:17.692Z,5.03
2018-09-05T13:56:46.533Z,3.62
2018-09-05T13:59:15.736Z,3.05
2018-09-05T14:01:44.467Z,3.22
2018-09-05T14:04:13.358Z,3.87
2018-09-05T14:06:42.269Z,3.60
2018-09-05T14:09:13.505Z,2.83
2018-09-05T14:11:42.760Z,3.35
2018-09-05T14:14:11.598Z,3.52
2018-09-05T14:16:40.444Z,3.33
2018-09-05T14:19:09.314Z,3.00
2018-09-05T14:21:38.158Z,2.98
2018-09-05T14:24:07.086Z,3.52
2018-09-05T14:26:36.284Z,4.08
2018-09-05T14:29:05.171Z,6.90
2018-09-05T14:31:34.189Z,9.25
2018-09-05T14:34:03.067Z,7.45
2018-09-05T14:36:31.954Z,4.60
2018-09-05T14:39:00.786Z,4.87
2018-09-05T14:41:30.036Z,5.67
2018-09-05T14:43:58.853Z,6.00
2018-09-05T14:46:28.537Z,4.60
2018-09-05T14:48:57.681Z,4.67
2018-09-05T14:51:26.571Z,5.17
2018-09-05T14:53:55.466Z,4.60
2018-09-05T14:56:24.643Z,6.50
2018-09-05T14:58:53.700Z,5.80
2018-09-05T15:01:22.625Z,6.73
2018-09-05T15:03:51.680Z,7.00
2018-09-05T15:06:20.771Z,8.50
2018-09-05T15:08:49.553Z,7.03
2018-09-05T15:11:18.953Z,6.83
2018-09-05T15:13:47.772Z,7.83
2018-09-05T15:16:20.241Z,7.70
2018-09-05T15:18:49.331Z,6.90
2018-09-05T15:21:18.481Z,9.73
2018-09-05T15:23:47.565Z,16.27
2018-09-05T15:26:17.116Z,12.70
2018-09-05T15:28:47.069Z,9.77
2018-09-05T15:31:16.016Z,8.37
2018-09-05T15:33:45.066Z,8.47
2018-09-05T15:36:14.073Z,9.40
2018-09-05T15:38:43.410Z,9.00
2018-09-05T15:41:12.327Z,9.07
2018-09-05T15:43:41.216Z,9.20
2018-09-05T15:46:10.264Z,10.40
2018-09-05T15:48:39.377Z,10.70
2018-09-05T15:51:08.374Z,10.43
2018-09-05T15:53:37.806Z,10.87
2018-09-05T15:56:06.824Z,11.17
2018-09-05T15:58:35.997Z,10.90
2018-09-05T16:01:06.152Z,11.83
2018-09-05T16:03:35.291Z,9.17
2018-09-05T16:06:04.481Z,11.67
2018-09-05T16:08:34.924Z,8.93
2018-09-05T16:11:06.239Z,10.20
2018-09-05T16:13:38.534Z,9.43
2018-09-05T16:16:10.842Z,9.20
2018-09-05T16:18:42.268Z,8.47
2018-09-05T16:21:12.733Z,7.90
2018-09-05T16:23:50.483Z,8.03
2018-09-05T16:26:32.970Z,9.17
2018-09-05T16:29:03.065Z,27.20
2018-09-05T16:31:37.532Z,9.40
2018-09-05T16:34:09.835Z,9.27
2018-09-05T16:36:39.903Z,10.37
2018-09-05T16:39:15.543Z,10.07
2018-09-05T16:41:47.642Z,9.73
2018-09-05T16:44:20.501Z,11.57
2018-09-05T16:46:54.208Z,9.87
2018-09-05T16:49:25.825Z,9.60
2018-09-05T16:51:54.743Z,10.10
2018-09-05T16:54:27.011Z,10.93
2018-09-05T16:56:55.952Z,10.70
2018-09-05T16:59:24.890Z,9.83
2018-09-05T17:01:54.228Z,10.23
2018-09-05T17:04:23.359Z,10.87
2018-09-05T17:06:52.401Z,10.47
2018-09-05T17:09:22.075Z,13.80
2018-09-05T17:11:50.892Z,19.37
2018-09-05T17:14:19.957Z,17.70
2018-09-05T17:16:53.116Z,14.50
2018-09-05T17:19:24.153Z,12.23
2018-09-05T17:21:53.190Z,10.23
2018-09-05T17:24:42.650Z,11.33
2018-09-05T17:27:11.914Z,13.13
2018-09-05T17:29:40.880Z,13.13
2018-09-05T17:32:09.873Z,13.97
2018-09-05T17:34:39.211Z,15.20
2018-09-05T17:37:08.144Z,18.00
2018-09-05T17:39:37.248Z,17.40
2018-09-05T17:42:06.705Z,22.00
2018-09-05T17:44:36.741Z,16.27
2018-09-05T17:47:05.941Z,16.20
2018-09-05T17:49:34.994Z,13.37
2018-09-05T17:52:04.897Z,11.43
2018-09-05T17:54:33.840Z,9.10
2018-09-05T17:57:03.234Z,9.47
2018-09-05T17:59:32.095Z,9.27
2018-09-05T18:02:01.218Z,9.37
2018-09-05T18:04:30.333Z,9.10
2018-09-05T18:07:00.497Z,9.47
2018-09-05T18:09:29.236Z,9.30
2018-09-05T18:11:58.822Z,9.27
2018-09-05T18:14:27.950Z,9.80
2018-09-05T18:16:57.948Z,9.67
2018-09-05T18:19:27.368Z,10.17
2018-09-05T18:21:56.235Z,9.13
2018-09-05T18:24:25.138Z,9.33
2018-09-05T18:26:54.073Z,10.43
2018-09-05T18:29:22.895Z,10.03
2018-09-05T18:31:51.798Z,9.30
2018-09-05T18:34:20.764Z,8.70
2018-09-05T18:36:49.923Z,8.97
2018-09-05T18:39:19.015Z,9.87
2018-09-05T18:41:48.619Z,9.10
2018-09-05T18:44:17.625Z,10.30
2018-09-05T18:46:46.560Z,10.30
2018-09-05T18:49:16.913Z,9.90
2018-09-05T18:51:47.937Z,10.13
2018-09-05T18:54:17.601Z,11.33
2018-09-05T18:56:46.770Z,11.27
2018-09-05T18:59:18.011Z,11.43
2018-09-05T19:01:47.121Z,12.00
2018-09-05T19:04:17.594Z,11.43
2018-09-05T19:06:47.014Z,10.77
2018-09-05T19:09:16.942Z,10.97
2018-09-05T19:11:50.088Z,13.80
2018-09-05T19:14:22.830Z,11.40
2018-09-05T19:16:57.561Z,11.03
2018-09-05T19:19:27.170Z,10.97
2018-09-05T19:21:56.205Z,10.37
2018-09-05T19:24:29.302Z,10.20
2018-09-05T19:27:01.372Z,10.17
2018-09-05T19:29:38.688Z,10.27
2018-09-05T19:32:07.678Z,9.60
2018-09-05T19:34:36.641Z,9.83
2018-09-05T19:37:05.785Z,9.57
2018-09-05T19:39:40.755Z,10.30
2018-09-05T19:42:09.860Z,9.70
2018-09-05T19:44:39.629Z,9.30
2018-09-05T19:47:09.893Z,8.93
2018-09-05T19:49:38.980Z,9.40
2018-09-05T19:52:09.020Z,9.33
2018-09-05T19:54:38.217Z,10.27
2018-09-05T19:57:10.250Z,9.80
2018-09-05T19:59:40.932Z,10.20
2018-09-05T20:02:10.485Z,9.20
2018-09-05T20:04:43.030Z,9.53
2018-09-05T20:07:15.453Z,10.20
2018-09-05T20:09:44.648Z,9.90
2018-09-05T20:12:16.937Z,9.27
2018-09-05T20:14:46.053Z,10.13
2018-09-05T20:17:17.323Z,10.30
2018-09-05T20:19:47.961Z,9.73
2018-09-05T20:22:20.705Z,9.00
2018-09-05T20:24:49.841Z,9.80
2018-09-05T20:27:19.798Z,10.40
2018-09-05T20:29:48.679Z,10.03
2018-09-05T20:32:17.827Z,10.03
2018-09-05T20:34:46.735Z,9.60
2018-09-05T20:37:15.668Z,9.80
2018-09-05T20:39:45.069Z,10.20
2018-09-05T20:42:13.921Z,10.97
2018-09-05T20:44:42.883Z,9.80
2018-09-05T20:47:11.957Z,10.37
2018-09-05T20:49:41.127Z,10.73
2018-09-05T20:52:10.182Z,9.23
2018-09-05T20:54:39.460Z,10.27
2018-09-05T20:57:08.922Z,9.77
2018-09-05T20:59:38.788Z,10.87
2018-09-05T21:02:07.713Z,10.50
2018-09-05T21:04:37.001Z,11.60
2018-09-05T21:07:06.027Z,11.23
2018-09-05T21:09:34.983Z,11.93
2018-09-05T21:12:04.301Z,12.40
2018-09-05T21:14:34.299Z,11.93
2018-09-05T21:17:03.851Z,13.00
2018-09-05T21:19:32.866Z,14.90
2018-09-05T21:22:01.865Z,15.83
2018-09-05T21:24:37.675Z,15.30
2018-09-05T21:27:06.852Z,17.67
2018-09-05T21:29:35.640Z,16.30
2018-09-05T21:32:04.913Z,15.30
2018-09-05T21:34:33.819Z,14.90
2018-09-05T21:37:02.838Z,14.93
2018-09-05T21:39:36.843Z,13.77
2018-09-05T21:42:07.030Z,14.60
2018-09-05T21:44:36.027Z,14.37
2018-09-05T21:47:06.448Z,14.73
2018-09-05T21:49:35.602Z,15.10
2018-09-05T21:52:04.790Z,13.73
2018-09-05T21:54:34.856Z,14.40
2018-09-05T21:57:03.764Z,14.20
2018-09-05T21:59:33.695Z,13.33
2018-09-05T22:02:02.775Z,13.57
2018-09-05T22:04:31.651Z,12.93
2018-09-05T22:07:00.477Z,12.67
2018-09-05T22:09:31.468Z,12.90
2018-09-05T22:12:17.303Z,12.77
2018-09-05T22:14:47.186Z,13.33
2018-09-05T22:17:16.168Z,13.17
2018-09-05T22:19:45.057Z,13.13
2018-09-05T22:22:15.534Z,13.67
2018-09-05T22:24:44.700Z,12.20
2018-09-05T22:27:13.737Z,12.93
2018-09-05T22:29:43.229Z,13.37
2018-09-05T22:32:12.188Z,13.63
2018-09-05T22:34:41.097Z,13.67
2018-09-05T22:37:10.505Z,13.40
2018-09-05T22:39:39.516Z,13.47
2018-09-05T22:42:08.635Z,13.33
2018-09-05T22:44:48.600Z,12.83
2018-09-05T22:47:28.422Z,14.33
2018-09-05T22:50:12.650Z,11.90
2018-09-05T22:57:04.739Z,11.13
2018-09-05T22:59:44.512Z,11.27
2018-09-05T23:04:29.420Z,11.90
2018-09-05T23:07:09.178Z,11.70
2018-09-05T23:09:50.286Z,12.50
2018-09-05T23:12:30.186Z,12.53
2018-09-05T23:15:10.507Z,12.97
2018-09-05T23:17:50.348Z,13.07
2018-09-05T23:20:33.226Z,12.73
2018-09-05T23:23:13.138Z,12.83
2018-09-05T23:25:43.600Z,12.93
2018-09-05T23:31:05.715Z,12.20
2018-09-05T23:33:35.364Z,12.37
2018-09-05T23:36:04.852Z,12.63
2018-09-05T23:38:34.410Z,12.93
2018-09-05T23:41:03.285Z,12.80
2018-09-05T23:49:22.941Z,12.50
2018-09-05T23:51:52.176Z,13.13
2018-09-05T23:54:22.629Z,13.37
2018-09-05T23:56:52.047Z,12.53
2018-09-05T23:59:21.139Z,12.47
